LEH weather

Le Havre Octeville Airport
Le Havre/Octeville, Upper Normandy, France

Public forecast

Using degrees Celsius for public forecast. Weather courtesy of forecast.io.

METAR (pilot weather report)

Retrieved 2019/05/21 16:30 UTC (0 seconds ago):

LFOH 211630Z AUTO 34008KT CAVOK 15/10 Q1019 NOSIG

TAF (pilot weather forecast)

Retrieved 2019/05/21 12:47 UTC (3 hours ago):

TAF LFOH 211100Z 2112/2212 29008KT CAVOK PROB30 TEMPO 2112/2114 BKN004 PROB40 2123/2206 3000 BR